createdAt,value
2023-04-14T00:03:23.535Z,4.60
2023-04-14T00:07:25.533Z,4.70
2023-04-14T00:11:28.770Z,4.90
2023-04-14T00:15:30.718Z,4.90
2023-04-14T00:19:32.558Z,5.10
2023-04-14T00:23:34.476Z,5.10
2023-04-14T00:27:36.555Z,5.40
2023-04-14T00:31:38.660Z,5.30
2023-04-14T00:35:40.754Z,5.40
2023-04-14T00:39:43.014Z,4.90
2023-04-14T00:43:45.240Z,5.10
2023-04-14T00:47:50.703Z,5.20
2023-04-14T00:51:53.211Z,5.20
2023-04-14T00:55:55.535Z,4.90
2023-04-14T00:59:59.304Z,4.90
2023-04-14T01:04:02.550Z,5.00
2023-04-14T01:08:04.895Z,5.10
2023-04-14T01:12:17.152Z,5.20
2023-04-14T01:16:31.913Z,5.10
2023-04-14T01:20:40.042Z,5.10
2023-04-14T01:25:06.994Z,5.00
2023-04-14T01:29:21.086Z,5.00
2023-04-14T01:33:26.211Z,4.80
2023-04-14T01:37:34.094Z,4.60
2023-04-14T01:41:41.516Z,4.60
2023-04-14T01:45:50.112Z,4.50
2023-04-14T01:49:53.840Z,4.50
2023-04-14T01:53:58.004Z,4.80
2023-04-14T01:58:01.282Z,4.80
2023-04-14T02:02:07.986Z,4.60
2023-04-14T02:06:12.657Z,4.50
2023-04-14T02:10:17.726Z,4.50
2023-04-14T02:14:24.477Z,4.50
2023-04-14T02:18:28.090Z,4.40
2023-04-14T02:22:30.284Z,4.40
2023-04-14T02:26:34.574Z,4.30
2023-04-14T02:30:42.396Z,4.40
2023-04-14T02:35:01.494Z,4.40
2023-04-14T02:39:11.796Z,4.40
2023-04-14T02:43:23.637Z,4.30
2023-04-14T02:47:44.545Z,4.20
2023-04-14T02:51:48.586Z,4.10
2023-04-14T02:55:52.268Z,4.10
2023-04-14T02:59:55.633Z,4.10
2023-04-14T03:03:58.244Z,4.20
2023-04-14T03:08:04.248Z,4.30
2023-04-14T03:12:08.054Z,4.20
2023-04-14T03:16:10.815Z,4.40
2023-04-14T03:20:18.725Z,4.40
2023-04-14T03:24:27.428Z,4.40
2023-04-14T03:28:34.460Z,4.50
2023-04-14T03:32:41.962Z,4.40
2023-04-14T03:36:48.900Z,4.50
2023-04-14T03:40:51.623Z,4.10
2023-04-14T03:45:00.333Z,4.40
2023-04-14T03:49:07.426Z,4.50
2023-04-14T03:53:12.579Z,4.60
2023-04-14T03:57:17.784Z,4.40
2023-04-14T04:01:23.809Z,3.80
2023-04-14T04:05:26.092Z,4.10
2023-04-14T04:09:29.912Z,4.10
2023-04-14T04:13:35.343Z,4.20
2023-04-14T04:17:38.715Z,4.20
2023-04-14T04:21:44.703Z,4.40
2023-04-14T04:25:47.324Z,4.30
2023-04-14T04:30:00.407Z,4.30
2023-04-14T04:34:05.776Z,4.40
2023-04-14T04:38:11.212Z,4.40
2023-04-14T04:42:16.580Z,4.70
2023-04-14T04:46:44.322Z,4.90
2023-04-14T04:50:46.937Z,4.60
2023-04-14T04:54:52.250Z,4.60
2023-04-14T04:58:54.380Z,4.70
2023-04-14T05:02:57.331Z,4.90
2023-04-14T05:06:59.354Z,5.10
2023-04-14T05:11:01.628Z,5.10
2023-04-14T05:15:03.715Z,5.20
2023-04-14T05:19:05.987Z,5.20
2023-04-14T05:23:07.919Z,5.00
2023-04-14T05:27:13.701Z,5.10
2023-04-14T05:31:16.635Z,5.30
2023-04-14T05:35:18.553Z,5.00
2023-04-14T05:39:20.374Z,5.30
2023-04-14T05:43:22.298Z,5.30
2023-04-14T05:47:24.522Z,5.40
2023-04-14T05:51:27.709Z,5.20
2023-04-14T05:55:29.777Z,4.60
2023-04-14T05:59:31.969Z,4.50
2023-04-14T06:03:34.139Z,4.40
2023-04-14T06:07:38.363Z,3.90
2023-04-14T06:11:40.594Z,3.80
2023-04-14T06:15:42.484Z,3.80
2023-04-14T06:19:46.779Z,3.90
2023-04-14T06:23:48.637Z,3.90
2023-04-14T06:27:50.831Z,3.90
2023-04-14T06:31:52.905Z,4.00
2023-04-14T06:35:54.965Z,3.80
2023-04-14T06:39:56.949Z,3.80
2023-04-14T06:43:58.825Z,4.00
2023-04-14T06:48:00.879Z,4.20
2023-04-14T06:52:03.999Z,4.30
2023-04-14T06:56:07.414Z,4.40
2023-04-14T07:00:10.683Z,4.60
2023-04-14T07:04:14.611Z,4.80
2023-04-14T07:08:18.429Z,4.80
2023-04-14T07:12:20.320Z,4.70
2023-04-14T07:16:22.291Z,4.60
2023-04-14T07:20:24.465Z,3.90
2023-04-14T07:24:26.687Z,4.50
2023-04-14T07:28:28.648Z,4.60
2023-04-14T07:32:31.061Z,4.50
2023-04-14T07:36:33.442Z,4.20
2023-04-14T07:40:36.533Z,3.60
2023-04-14T07:44:39.507Z,3.50
2023-04-14T07:48:41.685Z,3.50
2023-04-14T07:52:43.683Z,3.40
2023-04-14T07:56:46.678Z,4.30
2023-04-14T08:00:48.524Z,3.20
2023-04-14T08:04:50.492Z,3.90
2023-04-14T08:08:52.394Z,3.10
2023-04-14T08:12:54.592Z,4.40
2023-04-14T08:16:56.720Z,3.50
2023-04-14T08:20:58.679Z,4.00
2023-04-14T08:25:00.824Z,5.00
2023-04-14T08:29:03.133Z,5.30
2023-04-14T08:33:05.700Z,5.50
2023-04-14T08:37:07.473Z,5.60
2023-04-14T08:41:12.514Z,6.00
2023-04-14T08:45:14.802Z,6.20
2023-04-14T08:49:39.408Z,6.60
2023-04-14T08:53:45.123Z,6.60
2023-04-14T08:57:48.296Z,4.90
2023-04-14T09:01:53.085Z,6.20
2023-04-14T09:05:55.267Z,6.50
2023-04-14T09:09:57.876Z,6.80
2023-04-14T09:14:01.540Z,6.70
2023-04-14T09:18:04.041Z,6.40
2023-04-14T09:22:06.830Z,6.10
2023-04-14T09:26:10.245Z,6.20
2023-04-14T09:30:12.820Z,6.00
2023-04-14T09:34:21.630Z,6.30
2023-04-14T09:38:38.812Z,6.50
2023-04-14T09:42:42.873Z,6.50
2023-04-14T09:47:06.130Z,6.30
2023-04-14T09:51:13.952Z,5.40
2023-04-14T09:55:17.027Z,5.20
2023-04-14T09:59:33.938Z,5.00
2023-04-14T10:03:42.698Z,5.50
2023-04-14T10:07:44.670Z,6.40
2023-04-14T10:11:46.653Z,6.50
2023-04-14T10:15:48.771Z,6.20
2023-04-14T10:19:52.145Z,6.60
2023-04-14T10:23:56.884Z,6.80
2023-04-14T10:27:58.866Z,6.70
2023-04-14T10:32:06.276Z,6.40
2023-04-14T10:36:09.477Z,7.20
2023-04-14T10:40:11.512Z,7.30
2023-04-14T10:44:25.815Z,7.00
2023-04-14T10:48:48.840Z,6.70
2023-04-14T10:52:56.292Z,6.60
2023-04-14T10:57:15.370Z,7.10
2023-04-14T11:01:32.204Z,7.60
2023-04-14T11:05:43.232Z,7.90
2023-04-14T11:09:45.591Z,7.40
2023-04-14T11:14:10.981Z,7.50
2023-04-14T11:18:45.252Z,7.20
2023-04-14T11:22:50.094Z,8.30
2023-04-14T11:26:53.644Z,8.60
2023-04-14T11:30:58.399Z,7.20
2023-04-14T11:35:10.104Z,6.10
2023-04-14T11:39:15.824Z,7.00
2023-04-14T11:43:19.389Z,6.30
2023-04-14T11:47:22.791Z,6.20
2023-04-14T11:51:30.597Z,6.60
2023-04-14T11:55:32.996Z,7.40
2023-04-14T11:59:45.417Z,6.70
2023-04-14T12:03:49.560Z,7.40
2023-04-14T12:07:59.425Z,7.60
2023-04-14T12:12:09.705Z,8.70
2023-04-14T12:16:12.454Z,8.00
2023-04-14T12:20:16.086Z,8.40
2023-04-14T12:24:18.506Z,8.60
2023-04-14T12:28:28.534Z,9.20
2023-04-14T12:32:40.109Z,8.70
2023-04-14T12:36:50.002Z,7.80
2023-04-14T12:40:52.237Z,8.00
2023-04-14T12:45:02.266Z,7.40
2023-04-14T12:49:04.471Z,8.30
2023-04-14T12:53:27.131Z,8.60
2023-04-14T12:57:29.286Z,8.40
2023-04-14T13:01:31.426Z,8.80
2023-04-14T13:05:33.559Z,7.40
2023-04-14T13:09:35.623Z,7.90
2023-04-14T13:13:37.588Z,8.00
2023-04-14T13:17:39.693Z,8.10
2023-04-14T13:21:41.907Z,8.10
2023-04-14T13:25:43.901Z,8.60
2023-04-14T13:29:46.091Z,7.20
2023-04-14T13:33:47.912Z,7.30
2023-04-14T13:37:49.725Z,8.50
2023-04-14T13:41:52.142Z,9.00
2023-04-14T13:45:58.418Z,7.40
2023-04-14T13:50:01.464Z,7.40
2023-04-14T13:54:03.469Z,8.00
2023-04-14T13:58:05.365Z,8.20
2023-04-14T14:02:08.187Z,6.60
2023-04-14T14:06:10.379Z,7.40
2023-04-14T14:10:12.666Z,7.30
2023-04-14T14:14:14.929Z,6.50
2023-04-14T14:18:17.627Z,7.50
2023-04-14T14:22:19.651Z,7.70
2023-04-14T14:26:21.629Z,7.70
2023-04-14T14:30:23.642Z,7.60
2023-04-14T14:34:25.617Z,7.70
2023-04-14T14:38:27.498Z,6.70
2023-04-14T14:42:29.687Z,7.80
2023-04-14T14:46:32.002Z,8.30
2023-04-14T14:50:34.478Z,7.90
2023-04-14T14:54:36.745Z,7.70
2023-04-14T14:58:38.655Z,8.40
2023-04-14T15:02:40.998Z,7.80
2023-04-14T15:06:43.197Z,8.30
2023-04-14T15:10:45.620Z,8.90
2023-04-14T15:14:47.733Z,9.20
2023-04-14T15:18:49.890Z,9.10
2023-04-14T15:22:52.029Z,8.10
2023-04-14T15:26:54.015Z,7.90
2023-04-14T15:30:55.855Z,7.40
2023-04-14T15:34:57.949Z,7.60
2023-04-14T15:39:00.036Z,8.00
2023-04-14T15:43:02.214Z,7.50
2023-04-14T15:47:05.122Z,7.50
2023-04-14T15:51:07.314Z,7.80
2023-04-14T15:55:11.911Z,7.40
2023-04-14T15:59:13.734Z,7.50
2023-04-14T16:03:16.344Z,7.90
2023-04-14T16:07:18.446Z,6.80
2023-04-14T16:11:20.628Z,7.00
2023-04-14T16:15:23.063Z,7.90
2023-04-14T16:19:25.042Z,8.90
2023-04-14T16:23:28.073Z,8.30
2023-04-14T16:27:30.338Z,8.90
2023-04-14T16:31:32.364Z,9.30
2023-04-14T16:35:34.756Z,9.20
2023-04-14T16:39:36.904Z,7.90
2023-04-14T16:43:38.953Z,7.80
2023-04-14T16:47:41.224Z,8.80
2023-04-14T16:51:43.590Z,8.80
2023-04-14T16:55:45.380Z,9.30
2023-04-14T16:59:48.136Z,9.50
2023-04-14T17:03:50.707Z,9.40
2023-04-14T17:07:52.893Z,9.40
2023-04-14T17:11:55.077Z,9.20
2023-04-14T17:16:06.149Z,7.80
2023-04-14T17:20:10.795Z,8.80
2023-04-14T17:24:12.782Z,8.90
2023-04-14T17:28:15.648Z,8.50
2023-04-14T17:32:18.470Z,9.30
2023-04-14T17:36:20.847Z,8.60
2023-04-14T17:40:22.924Z,8.90
2023-04-14T17:44:34.282Z,7.80
2023-04-14T17:48:36.278Z,7.60
2023-04-14T17:52:38.607Z,7.40
2023-04-14T17:56:40.588Z,8.60
2023-04-14T18:00:42.512Z,8.90
2023-04-14T18:04:44.345Z,8.70
2023-04-14T18:08:46.360Z,8.40
2023-04-14T18:12:49.273Z,7.60
2023-04-14T18:16:51.536Z,7.20
2023-04-14T18:20:54.023Z,7.90
2023-04-14T18:24:56.120Z,8.30
2023-04-14T18:28:58.056Z,8.30
2023-04-14T18:33:00.947Z,8.00
2023-04-14T18:37:03.893Z,7.10
2023-04-14T18:41:06.240Z,6.30
2023-04-14T18:45:09.654Z,7.00
2023-04-14T18:49:11.742Z,7.60
2023-04-14T18:53:14.739Z,7.90
2023-04-14T18:57:16.629Z,8.00
2023-04-14T19:01:18.671Z,8.40
2023-04-14T19:05:21.200Z,8.60
2023-04-14T19:09:24.347Z,8.60
2023-04-14T19:13:26.596Z,7.90
2023-04-14T19:17:28.528Z,7.60
2023-04-14T19:21:30.762Z,7.50
2023-04-14T19:25:35.155Z,6.90
2023-04-14T19:29:37.784Z,5.30
2023-04-14T19:33:41.660Z,5.90
2023-04-14T19:37:44.619Z,7.00
2023-04-14T19:41:47.342Z,7.30
2023-04-14T19:45:53.092Z,7.80
2023-04-14T19:49:55.396Z,8.00
2023-04-14T19:53:57.541Z,8.00
2023-04-14T19:57:59.339Z,8.10
2023-04-14T20:02:01.820Z,8.10
2023-04-14T20:06:04.364Z,8.10
2023-04-14T20:10:08.165Z,8.10
2023-04-14T20:14:10.729Z,8.10
2023-04-14T20:18:12.936Z,8.00
2023-04-14T20:22:14.856Z,7.90
2023-04-14T20:26:17.281Z,7.90
2023-04-14T20:30:19.071Z,7.80
2023-04-14T20:34:20.856Z,7.90
2023-04-14T20:38:23.085Z,7.70
2023-04-14T20:42:25.487Z,7.40
2023-04-14T20:46:27.962Z,7.30
2023-04-14T20:50:30.191Z,7.30
2023-04-14T20:54:32.152Z,7.10
2023-04-14T20:58:34.004Z,7.00
2023-04-14T21:02:37.488Z,6.90
2023-04-14T21:06:39.690Z,6.80
2023-04-14T21:11:14.217Z,6.80
2023-04-14T21:15:46.323Z,6.70
2023-04-14T21:19:28.342Z,6.50
2023-04-14T21:23:30.186Z,6.10
2023-04-14T21:27:32.146Z,6.20
2023-04-14T21:31:34.213Z,6.00
2023-04-14T21:35:36.383Z,6.00
2023-04-14T21:39:38.319Z,5.90
2023-04-14T21:43:40.305Z,5.90
2023-04-14T21:47:42.395Z,6.00
2023-04-14T21:51:44.962Z,6.00
2023-04-14T21:55:47.320Z,5.70
2023-04-14T22:00:13.285Z,5.30
2023-04-14T22:04:28.885Z,5.20
2023-04-14T22:08:40.220Z,5.30
2023-04-14T22:12:42.591Z,5.10
2023-04-14T22:16:44.769Z,5.30
2023-04-14T22:20:46.841Z,5.50
2023-04-14T22:24:51.006Z,5.20
2023-04-14T22:28:53.361Z,5.30
2023-04-14T22:32:55.951Z,5.60
2023-04-14T22:36:58.088Z,5.00
2023-04-14T22:41:01.248Z,4.80
2023-04-14T22:45:03.466Z,4.60
2023-04-14T22:49:05.525Z,4.80
2023-04-14T22:53:07.638Z,4.70
2023-04-14T22:57:10.432Z,4.60
2023-04-14T23:01:21.975Z,4.90
2023-04-14T23:05:24.699Z,5.00
2023-04-14T23:09:30.356Z,5.10
2023-04-14T23:13:32.211Z,5.50
2023-04-14T23:17:34.835Z,5.30
2023-04-14T23:21:37.011Z,5.40
2023-04-14T23:25:39.103Z,5.40
2023-04-14T23:29:41.454Z,5.60
2023-04-14T23:33:43.274Z,5.60
2023-04-14T23:37:45.506Z,5.60
2023-04-14T23:41:47.693Z,5.40
2023-04-14T23:45:49.618Z,5.40
2023-04-14T23:49:51.846Z,5.50
2023-04-14T23:53:53.873Z,5.80
